PWSweather.com
Personal Weather Stations
Station Observations
AZALEAPK1
San Diego, CA 92105

San Diego, CA 92105

Lat: 32.736, Lon: -117.108

Elevation: 302

Station Type: LaCrosse WS-2813U-IT

Latest ConditionsUpdated 3:22:45 PM PDT Friday, Oct 18, 2019
Currently Today's Max Today's Min Today's Average
Temperature 76.7°F24.8°C 77.0°F25.0°C 60.3°F15.7°C 66.7°F19.3°C
Dew Point 58.8°F14.9°C 59.5°F15.3°C 54.2°F12.3°C 57.0°F13.9°C
Winds 7.9 mph NNE12.7 kmh NNE 7.9 mph -12.7 kmh - - 1.6 mph 2.6 kmh
Wind Gusts 10.3 mph16.6 kmh 10.3 mph16.6 kmh - -
Humidity 54% 81% 54% 71%
Pressure 29.82 in1009.8 mb 29.89 in1012.2 mb 29.80 in1009.1 mb -
Hour Temp Dew Point Humidity Winds Wind Gusts Pressure Precip Precip Rate Daily Precip Total
03:22 PM 76.7°F24.8°C 58.8°F14.9°C 54% 7.9 mph NNE12.7 kmh NNE 10.3 mph16.6 kmh 29.82 in1009.8 mb 0.00 in0.0 mm 0.00 in0.0 mm 0.00 in0.0 mm
03:17 PM 76.7°F24.8°C 59.2°F15.1°C 55% 6.1 mph NNE9.8 kmh NNE 10.3 mph16.6 kmh 29.82 in1009.8 mb 0.00 in0.0 mm 0.00 in0.0 mm 0.00 in0.0 mm
03:12 PM 76.9°F24.9°C 59.0°F15.0°C 54% 5.6 mph NNE9.0 kmh NNE 8.1 mph13.0 kmh 29.82 in1009.8 mb 0.00 in0.0 mm 0.00 in0.0 mm 0.00 in0.0 mm
03:07 PM 77.0°F25.0°C 59.0°F15.0°C 54% 3.8 mph NNE6.1 kmh NNE 8.1 mph13.0 kmh 29.82 in1009.8 mb 0.00 in0.0 mm 0.00 in0.0 mm 0.00 in0.0 mm
03:02 PM 76.9°F24.9°C 59.4°F15.2°C 55% 3.4 mph NNE5.5 kmh NNE 4.7 mph7.6 kmh 29.83 in1010.2 mb 0.00 in0.0 mm 0.00 in0.0 mm 0.00 in0.0 mm
02:56 PM 76.7°F24.8°C 59.2°F15.1°C 55% 2.6 mph NNE4.2 kmh NNE 6.3 mph10.1 kmh 29.82 in1009.8 mb 0.00 in0.0 mm 0.00 in0.0 mm 0.00 in0.0 mm
02:51 PM 76.9°F24.9°C 59.0°F15.0°C 54% 3.2 mph NNE5.1 kmh NNE 6.3 mph10.1 kmh 29.82 in1009.8 mb 0.00 in0.0 mm 0.00 in0.0 mm 0.00 in0.0 mm
02:46 PM 76.7°F24.8°C 58.8°F14.9°C 54% 5.6 mph NNE9.0 kmh NNE 6.3 mph10.1 kmh 29.82 in1009.8 mb 0.00 in0.0 mm 0.00 in0.0 mm 0.00 in0.0 mm
02:40 PM 76.7°F24.8°C 59.2°F15.1°C 55% 3.2 mph NNE5.1 kmh NNE 4.3 mph6.9 kmh 29.82 in1009.8 mb 0.00 in0.0 mm 0.00 in0.0 mm 0.00 in0.0 mm
02:35 PM 76.7°F24.8°C 59.2°F15.1°C 55% 2.5 mph NNE4.0 kmh NNE 4.3 mph6.9 kmh 29.82 in1009.8 mb 0.00 in0.0 mm 0.00 in0.0 mm 0.00 in0.0 mm
02:30 PM 76.3°F24.6°C 59.4°F15.2°C 56% 2.8 mph NNE4.5 kmh NNE 6.3 mph10.1 kmh 29.82 in1009.8 mb 0.00 in0.0 mm 0.00 in0.0 mm 0.00 in0.0 mm
02:25 PM 76.1°F24.5°C 58.8°F14.9°C 55% 4.1 mph NNE6.6 kmh NNE 6.3 mph10.1 kmh 29.82 in1009.8 mb 0.00 in0.0 mm 0.00 in0.0 mm 0.00 in0.0 mm
02:20 PM 76.0°F24.4°C 58.6°F14.8°C 55% 2.7 mph NNE4.3 kmh NNE 9.4 mph15.1 kmh 29.83 in1010.2 mb 0.00 in0.0 mm 0.00 in0.0 mm 0.00 in0.0 mm
02:14 PM 76.1°F24.5°C 59.3°F15.2°C 56% 2.4 mph NNE3.9 kmh NNE 9.4 mph15.1 kmh 29.83 in1010.2 mb 0.00 in0.0 mm 0.00 in0.0 mm 0.00 in0.0 mm
02:09 PM 76.0°F24.4°C 59.1°F15.1°C 56% 3.7 mph NNE6.0 kmh NNE 5.6 mph9.0 kmh 29.83 in1010.2 mb 0.00 in0.0 mm 0.00 in0.0 mm 0.00 in0.0 mm
02:04 PM 75.6°F24.2°C 59.3°F15.2°C 57% 1.8 mph NNE2.9 kmh NNE 6.3 mph10.1 kmh 29.83 in1010.2 mb 0.00 in0.0 mm 0.00 in0.0 mm 0.00 in0.0 mm
01:59 PM 75.2°F24.0°C 59.0°F15.0°C 57% 5.2 mph NNE8.4 kmh NNE 6.3 mph10.1 kmh 29.83 in1010.2 mb 0.00 in0.0 mm 0.00 in0.0 mm 0.00 in0.0 mm
01:53 PM 75.1°F23.9°C 59.3°F15.2°C 58% 0.9 mph NNE1.4 kmh NNE 2.2 mph3.5 kmh 29.83 in1010.2 mb 0.00 in0.0 mm 0.00 in0.0 mm 0.00 in0.0 mm
01:48 PM 74.7°F23.7°C 59.0°F15.0°C 58% 2.2 mph NNE3.5 kmh NNE 4.5 mph7.2 kmh 29.83 in1010.2 mb 0.00 in0.0 mm 0.00 in0.0 mm 0.00 in0.0 mm
01:43 PM 74.5°F23.6°C 58.8°F14.9°C 58% 1.6 mph NNE2.6 kmh NNE 7.8 mph12.6 kmh 29.83 in1010.2 mb 0.00 in0.0 mm 0.00 in0.0 mm 0.00 in0.0 mm
01:38 PM 74.5°F23.6°C 58.2°F14.6°C 57% 4.3 mph NNE6.9 kmh NNE 7.8 mph12.6 kmh 29.83 in1010.2 mb 0.00 in0.0 mm 0.00 in0.0 mm 0.00 in0.0 mm
01:32 PM 74.7°F23.7°C 58.4°F14.7°C 57% 6.0 mph NNE9.7 kmh NNE 7.8 mph12.6 kmh 29.83 in1010.2 mb 0.00 in0.0 mm 0.00 in0.0 mm 0.00 in0.0 mm
01:25 PM 74.3°F23.5°C 58.6°F14.8°C 58% 3.9 mph NNE6.3 kmh NNE 6.3 mph10.1 kmh 29.84 in1010.5 mb 0.00 in0.0 mm 0.00 in0.0 mm 0.00 in0.0 mm
01:19 PM 74.2°F23.4°C 58.9°F14.9°C 59% 4.1 mph NNE6.6 kmh NNE 8.1 mph13.0 kmh 29.84 in1010.5 mb 0.00 in0.0 mm 0.00 in0.0 mm 0.00 in0.0 mm
01:14 PM 74.2°F23.4°C 58.9°F14.9°C 59% 5.5 mph NNE8.9 kmh NNE 9.2 mph14.8 kmh 29.84 in1010.5 mb 0.00 in0.0 mm 0.00 in0.0 mm 0.00 in0.0 mm
01:09 PM 74.0°F23.3°C 58.7°F14.8°C 59% 5.0 mph NNE8.0 kmh NNE 6.9 mph11.1 kmh 29.85 in1010.8 mb 0.00 in0.0 mm 0.00 in0.0 mm 0.00 in0.0 mm
01:04 PM 73.8°F23.2°C 58.5°F14.7°C 59% 5.7 mph NNE9.2 kmh NNE 8.5 mph13.7 kmh 29.85 in1010.8 mb 0.00 in0.0 mm 0.00 in0.0 mm 0.00 in0.0 mm
12:58 PM 73.6°F23.1°C 58.9°F14.9°C 60% 6.3 mph NNE10.1 kmh NNE 8.5 mph13.7 kmh 29.85 in1010.8 mb 0.00 in0.0 mm 0.00 in0.0 mm 0.00 in0.0 mm
12:52 PM 73.4°F23.0°C 59.1°F15.1°C 61% 6.0 mph NNE9.7 kmh NNE 8.9 mph14.3 kmh 29.86 in1011.2 mb 0.00 in0.0 mm 0.00 in0.0 mm 0.00 in0.0 mm
12:47 PM 73.4°F23.0°C 59.1°F15.1°C 61% 4.4 mph NNE7.1 kmh NNE 8.9 mph14.3 kmh 29.86 in1011.2 mb 0.00 in0.0 mm 0.00 in0.0 mm 0.00 in0.0 mm
12:40 PM 72.7°F22.6°C 59.0°F15.0°C 62% 4.3 mph NNE6.9 kmh NNE 9.6 mph15.4 kmh 29.86 in1011.2 mb 0.00 in0.0 mm 0.00 in0.0 mm 0.00 in0.0 mm
12:34 PM 72.5°F22.5°C 58.8°F14.9°C 62% 6.0 mph NNE9.7 kmh NNE 7.6 mph12.2 kmh 29.86 in1011.2 mb 0.00 in0.0 mm 0.00 in0.0 mm 0.00 in0.0 mm
12:29 PM 72.4°F22.4°C 58.6°F14.8°C 62% 6.3 mph NNE10.1 kmh NNE 7.6 mph12.2 kmh 29.86 in1011.2 mb 0.00 in0.0 mm 0.00 in0.0 mm 0.00 in0.0 mm
12:24 PM 72.0°F22.2°C 59.1°F15.1°C 64% 3.8 mph NNE6.1 kmh NNE 7.4 mph11.9 kmh 29.87 in1011.5 mb 0.00 in0.0 mm 0.00 in0.0 mm 0.00 in0.0 mm
12:19 PM 71.6°F22.0°C 58.8°F14.9°C 64% 7.4 mph NNE11.9 kmh NNE 7.4 mph11.9 kmh 29.86 in1011.2 mb 0.00 in0.0 mm 0.00 in0.0 mm 0.00 in0.0 mm
12:13 PM 71.6°F22.0°C 59.2°F15.1°C 65% 2.5 mph NNE4.0 kmh NNE 4.9 mph7.9 kmh 29.87 in1011.5 mb 0.00 in0.0 mm 0.00 in0.0 mm 0.00 in0.0 mm
12:08 PM 71.3°F21.8°C 58.4°F14.7°C 64% 2.7 mph NNE4.3 kmh NNE 5.1 mph8.2 kmh 29.87 in1011.5 mb 0.00 in0.0 mm 0.00 in0.0 mm 0.00 in0.0 mm
12:03 PM 71.3°F21.8°C 58.4°F14.7°C 64% 3.8 mph NNE6.1 kmh NNE 6.0 mph9.7 kmh 29.87 in1011.5 mb 0.00 in0.0 mm 0.00 in0.0 mm 0.00 in0.0 mm
11:57 AM 71.5°F21.9°C 58.6°F14.8°C 64% 3.6 mph NNE5.8 kmh NNE 6.0 mph9.7 kmh 29.87 in1011.5 mb 0.00 in0.0 mm 0.00 in0.0 mm 0.00 in0.0 mm
11:52 AM 71.5°F21.9°C 58.6°F14.8°C 64% 3.3 mph NNE5.3 kmh NNE 5.1 mph8.2 kmh 29.88 in1011.9 mb 0.00 in0.0 mm 0.00 in0.0 mm 0.00 in0.0 mm
11:47 AM 71.5°F21.9°C 58.2°F14.6°C 63% 2.2 mph NNE3.5 kmh NNE 4.9 mph7.9 kmh 29.88 in1011.9 mb 0.00 in0.0 mm 0.00 in0.0 mm 0.00 in0.0 mm
11:42 AM 71.3°F21.8°C 58.1°F14.5°C 63% 1.9 mph NNE3.1 kmh NNE 2.0 mph3.2 kmh 29.88 in1011.9 mb 0.00 in0.0 mm 0.00 in0.0 mm 0.00 in0.0 mm
11:37 AM 71.1°F21.7°C 57.9°F14.4°C 63% 1.0 mph NNE1.6 kmh NNE 5.1 mph8.2 kmh 29.88 in1011.9 mb 0.00 in0.0 mm 0.00 in0.0 mm 0.00 in0.0 mm
11:31 AM 70.9°F21.6°C 57.7°F14.3°C 63% 3.1 mph NNE5.0 kmh NNE 5.1 mph8.2 kmh 29.88 in1011.9 mb 0.00 in0.0 mm 0.00 in0.0 mm 0.00 in0.0 mm
11:24 AM 70.7°F21.5°C 58.0°F14.4°C 64% 2.7 mph NNE4.3 kmh NNE 4.7 mph7.6 kmh 29.88 in1011.9 mb 0.00 in0.0 mm 0.00 in0.0 mm 0.00 in0.0 mm
11:18 AM 70.4°F21.3°C 58.1°F14.5°C 65% 1.5 mph NNE2.4 kmh NNE 5.1 mph8.2 kmh 29.88 in1011.9 mb 0.00 in0.0 mm 0.00 in0.0 mm 0.00 in0.0 mm
11:12 AM 70.0°F21.1°C 57.7°F14.3°C 65% 2.7 mph NNE4.3 kmh NNE 5.4 mph8.7 kmh 29.88 in1011.9 mb 0.00 in0.0 mm 0.00 in0.0 mm 0.00 in0.0 mm
11:07 AM 70.0°F21.1°C 57.7°F14.3°C 65% 3.0 mph NNE4.8 kmh NNE 5.4 mph8.7 kmh 29.88 in1011.9 mb 0.00 in0.0 mm 0.00 in0.0 mm 0.00 in0.0 mm
11:02 AM 69.7°F20.9°C 57.8°F14.3°C 66% 1.8 mph NNE2.9 kmh NNE 2.7 mph4.3 kmh 29.89 in1012.2 mb 0.00 in0.0 mm 0.00 in0.0 mm 0.00 in0.0 mm
10:57 AM 69.5°F20.8°C 58.0°F14.4°C 67% 0.8 mph NNE1.3 kmh NNE 4.0 mph6.4 kmh 29.89 in1012.2 mb 0.00 in0.0 mm 0.00 in0.0 mm 0.00 in0.0 mm
10:52 AM 69.3°F20.7°C 57.9°F14.4°C 67% 1.3 mph NNE2.1 kmh NNE 4.0 mph6.4 kmh 29.89 in1012.2 mb 0.00 in0.0 mm 0.00 in0.0 mm 0.00 in0.0 mm
10:45 AM 68.8°F20.4°C 57.8°F14.3°C 68% 2.2 mph NNE3.5 kmh NNE 4.0 mph6.4 kmh 29.89 in1012.2 mb 0.00 in0.0 mm 0.00 in0.0 mm 0.00 in0.0 mm
10:39 AM 68.4°F20.2°C 57.4°F14.1°C 68% 0.9 mph NNE1.4 kmh NNE 4.0 mph6.4 kmh 29.89 in1012.2 mb 0.00 in0.0 mm 0.00 in0.0 mm 0.00 in0.0 mm
10:33 AM 68.4°F20.2°C 57.4°F14.1°C 68% 1.7 mph NNE2.7 kmh NNE 7.8 mph12.6 kmh 29.89 in1012.2 mb 0.00 in0.0 mm 0.00 in0.0 mm 0.00 in0.0 mm
10:27 AM 68.9°F20.5°C 57.5°F14.2°C 67% 4.2 mph NNE6.8 kmh NNE 7.8 mph12.6 kmh 29.89 in1012.2 mb 0.00 in0.0 mm 0.00 in0.0 mm 0.00 in0.0 mm
10:23 AM 68.9°F20.5°C 58.0°F14.4°C 68% 0.5 mph NNE0.8 kmh NNE 2.5 mph4.0 kmh 29.89 in1012.2 mb 0.00 in0.0 mm 0.00 in0.0 mm 0.00 in0.0 mm
10:18 AM 68.8°F20.4°C 57.8°F14.3°C 68% 1.2 mph NNE1.9 kmh NNE 3.8 mph6.1 kmh 29.89 in1012.2 mb 0.00 in0.0 mm 0.00 in0.0 mm 0.00 in0.0 mm
10:13 AM 68.9°F20.5°C 57.1°F13.9°C 66% 3.7 mph NNE6.0 kmh NNE 3.8 mph6.1 kmh 29.89 in1012.2 mb 0.00 in0.0 mm 0.00 in0.0 mm 0.00 in0.0 mm
10:08 AM 69.3°F20.7°C 57.9°F14.4°C 67% 0.6 mph NNE1.0 kmh NNE 2.7 mph4.3 kmh 29.89 in1012.2 mb 0.00 in0.0 mm 0.00 in0.0 mm 0.00 in0.0 mm
10:03 AM 70.0°F21.1°C 59.0°F15.0°C 68% 1.3 mph NNE2.1 kmh NNE 4.0 mph6.4 kmh 29.89 in1012.2 mb 0.00 in0.0 mm 0.00 in0.0 mm 0.00 in0.0 mm
09:58 AM 69.7°F20.9°C 59.1°F15.1°C 69% 2.4 mph NNE3.9 kmh NNE 4.0 mph6.4 kmh 29.89 in1012.2 mb 0.00 in0.0 mm 0.00 in0.0 mm 0.00 in0.0 mm
09:52 AM 69.3°F20.7°C 59.1°F15.1°C 70% 0.2 mph NNE0.3 kmh NNE 2.5 mph4.0 kmh 29.89 in1012.2 mb 0.00 in0.0 mm 0.00 in0.0 mm 0.00 in0.0 mm
09:47 AM 68.8°F20.4°C 58.6°F14.8°C 70% 0.5 mph NNE0.8 kmh NNE 1.8 mph2.9 kmh 29.88 in1011.9 mb 0.00 in0.0 mm 0.00 in0.0 mm 0.00 in0.0 mm
09:42 AM 68.2°F20.1°C 58.2°F14.6°C 70% 0.6 mph NNE1.0 kmh NNE 2.0 mph3.2 kmh 29.89 in1012.2 mb 0.00 in0.0 mm 0.00 in0.0 mm 0.00 in0.0 mm
09:37 AM 68.4°F20.2°C 58.3°F14.6°C 70% 0.7 mph NNE1.1 kmh NNE 2.5 mph4.0 kmh 29.89 in1012.2 mb 0.00 in0.0 mm 0.00 in0.0 mm 0.00 in0.0 mm
09:31 AM 68.9°F20.5°C 59.1°F15.1°C 71% 2.0 mph NNE3.2 kmh NNE 2.5 mph4.0 kmh 29.89 in1012.2 mb 0.00 in0.0 mm 0.00 in0.0 mm 0.00 in0.0 mm
09:26 AM 68.8°F20.4°C 59.4°F15.2°C 72% 1.2 mph NNE1.9 kmh NNE 2.5 mph4.0 kmh 29.88 in1011.9 mb 0.00 in0.0 mm 0.00 in0.0 mm 0.00 in0.0 mm
09:21 AM 68.6°F20.3°C 59.2°F15.1°C 72% 1.2 mph NNE1.9 kmh NNE 2.5 mph4.0 kmh 29.88 in1011.9 mb 0.00 in0.0 mm 0.00 in0.0 mm 0.00 in0.0 mm
09:16 AM 68.0°F20.0°C 59.5°F15.3°C 74% 0.2 mph NNE0.3 kmh NNE 1.3 mph2.1 kmh 29.89 in1012.2 mb 0.00 in0.0 mm 0.00 in0.0 mm 0.00 in0.0 mm
09:11 AM 67.9°F19.9°C 59.3°F15.2°C 74% 0.3 mph NNE0.5 kmh NNE 1.8 mph2.9 kmh 29.88 in1011.9 mb 0.00 in0.0 mm 0.00 in0.0 mm 0.00 in0.0 mm
09:06 AM 67.5°F19.7°C 59.0°F15.0°C 74% 1.0 mph NNE1.6 kmh NNE 3.4 mph5.5 kmh 29.88 in1011.9 mb 0.00 in0.0 mm 0.00 in0.0 mm 0.00 in0.0 mm
09:01 AM 67.0°F19.4°C 58.8°F14.9°C 75% 1.3 mph NNE2.1 kmh NNE 3.4 mph5.5 kmh 29.88 in1011.9 mb 0.00 in0.0 mm 0.00 in0.0 mm 0.00 in0.0 mm
08:56 AM 66.6°F19.2°C 59.1°F15.1°C 77% 1.5 mph NNE2.4 kmh NNE 2.0 mph3.2 kmh 29.88 in1011.9 mb 0.00 in0.0 mm 0.00 in0.0 mm 0.00 in0.0 mm
08:51 AM 65.5°F18.6°C 58.5°F14.7°C 78% 1.1 mph NNE1.8 kmh NNE 2.2 mph3.5 kmh 29.88 in1011.9 mb 0.00 in0.0 mm 0.00 in0.0 mm 0.00 in0.0 mm
08:44 AM 64.8°F18.2°C 58.2°F14.6°C 79% 1.1 mph NNE1.8 kmh NNE 2.2 mph3.5 kmh 29.88 in1011.9 mb 0.00 in0.0 mm 0.00 in0.0 mm 0.00 in0.0 mm
08:39 AM 64.4°F18.0°C 57.8°F14.3°C 79% 0.8 mph NNE1.3 kmh NNE 1.8 mph2.9 kmh 29.87 in1011.5 mb 0.00 in0.0 mm 0.00 in0.0 mm 0.00 in0.0 mm
08:34 AM 63.9°F17.7°C 57.6°F14.2°C 80% 0.4 mph NNE0.6 kmh NNE 2.9 mph4.7 kmh 29.86 in1011.2 mb 0.00 in0.0 mm 0.00 in0.0 mm 0.00 in0.0 mm
08:29 AM 63.4°F17.4°C 56.7°F13.7°C 79% 2.1 mph NNE3.4 kmh NNE 2.9 mph4.7 kmh 29.86 in1011.2 mb 0.00 in0.0 mm 0.00 in0.0 mm 0.00 in0.0 mm
08:23 AM 63.0°F17.2°C 56.3°F13.5°C 79% 1.0 mph NNE1.6 kmh NNE 2.2 mph3.5 kmh 29.86 in1011.2 mb 0.00 in0.0 mm 0.00 in0.0 mm 0.00 in0.0 mm
08:18 AM 62.3°F16.8°C 56.0°F13.3°C 80% 0.8 mph NNE1.3 kmh NNE 3.4 mph5.5 kmh 29.86 in1011.2 mb 0.00 in0.0 mm 0.00 in0.0 mm 0.00 in0.0 mm
08:13 AM 61.9°F16.6°C 55.7°F13.2°C 80% 2.5 mph NNE4.0 kmh NNE 3.4 mph5.5 kmh 29.86 in1011.2 mb 0.00 in0.0 mm 0.00 in0.0 mm 0.00 in0.0 mm
08:08 AM 61.6°F16.4°C 55.4°F13.0°C 80% 1.6 mph NNE2.6 kmh NNE 2.0 mph3.2 kmh 29.85 in1010.8 mb 0.00 in0.0 mm 0.00 in0.0 mm 0.00 in0.0 mm
08:03 AM 61.4°F16.3°C 55.5°F13.1°C 81% 0.5 mph NNE0.8 kmh NNE 2.5 mph4.0 kmh 29.86 in1011.2 mb 0.00 in0.0 mm 0.00 in0.0 mm 0.00 in0.0 mm
07:57 AM 61.2°F16.2°C 55.4°F13.0°C 81% 0.7 mph NNE1.1 kmh NNE 2.5 mph4.0 kmh 29.85 in1010.8 mb 0.00 in0.0 mm 0.00 in0.0 mm 0.00 in0.0 mm
07:52 AM 60.7°F15.9°C 54.9°F12.7°C 81% 0.7 mph NNE1.1 kmh NNE 0.7 mph1.1 kmh 29.85 in1010.8 mb 0.00 in0.0 mm 0.00 in0.0 mm 0.00 in0.0 mm
07:47 AM 60.7°F15.9°C 54.9°F12.7°C 81% Calm Calm 0.7 mph1.1 kmh 29.85 in1010.8 mb 0.00 in0.0 mm 0.00 in0.0 mm 0.00 in0.0 mm
07:42 AM 60.5°F15.8°C 54.7°F12.6°C 81% 0.4 mph NNE0.6 kmh NNE 0.7 mph1.1 kmh 29.85 in1010.8 mb 0.00 in0.0 mm 0.00 in0.0 mm 0.00 in0.0 mm
07:37 AM 60.5°F15.8°C 54.7°F12.6°C 81% 0.2 mph NNE0.3 kmh NNE 0.4 mph0.6 kmh 29.85 in1010.8 mb 0.00 in0.0 mm 0.00 in0.0 mm 0.00 in0.0 mm
07:32 AM 60.5°F15.8°C 54.7°F12.6°C 81% 0.1 mph NNE0.2 kmh NNE 0.4 mph0.6 kmh 29.85 in1010.8 mb 0.00 in0.0 mm 0.00 in0.0 mm 0.00 in0.0 mm
07:26 AM 60.5°F15.8°C 54.7°F12.6°C 81% 0.1 mph NNE0.2 kmh NNE 0.4 mph0.6 kmh 29.84 in1010.5 mb 0.00 in0.0 mm 0.00 in0.0 mm 0.00 in0.0 mm
07:20 AM 60.3°F15.7°C 54.2°F12.3°C 80% 0.2 mph NNE0.3 kmh NNE 0.4 mph0.6 kmh 29.84 in1010.5 mb 0.00 in0.0 mm 0.00 in0.0 mm 0.00 in0.0 mm
07:15 AM 60.5°F15.8°C 54.4°F12.4°C 80% Calm Calm 1.1 mph1.8 kmh 29.84 in1010.5 mb 0.00 in0.0 mm 0.00 in0.0 mm 0.00 in0.0 mm
07:08 AM 60.5°F15.8°C 54.4°F12.4°C 80% Calm Calm 1.8 mph2.9 kmh 29.84 in1010.5 mb 0.00 in0.0 mm 0.00 in0.0 mm 0.00 in0.0 mm
07:03 AM 60.5°F15.8°C 54.4°F12.4°C 80% 1.1 mph NNE1.8 kmh NNE 1.8 mph2.9 kmh 29.84 in1010.5 mb 0.00 in0.0 mm 0.00 in0.0 mm 0.00 in0.0 mm
06:58 AM 60.5°F15.8°C 54.4°F12.4°C 80% 1.6 mph NNE2.6 kmh NNE 1.8 mph2.9 kmh 29.83 in1010.2 mb 0.00 in0.0 mm 0.00 in0.0 mm 0.00 in0.0 mm
06:53 AM 60.5°F15.8°C 54.4°F12.4°C 80% 1.6 mph NNE2.6 kmh NNE 1.6 mph2.6 kmh 29.83 in1010.2 mb 0.00 in0.0 mm 0.00 in0.0 mm 0.00 in0.0 mm
06:48 AM 60.5°F15.8°C 54.4°F12.4°C 80% 0.2 mph NNE0.3 kmh NNE 2.2 mph3.5 kmh 29.84 in1010.5 mb 0.00 in0.0 mm 0.00 in0.0 mm 0.00 in0.0 mm
06:43 AM 60.5°F15.8°C 54.4°F12.4°C 80% 0.7 mph NNE1.1 kmh NNE 2.2 mph3.5 kmh 29.84 in1010.5 mb 0.00 in0.0 mm 0.00 in0.0 mm 0.00 in0.0 mm
06:36 AM 60.5°F15.8°C 54.4°F12.4°C 80% 1.6 mph NNE2.6 kmh NNE 2.0 mph3.2 kmh 29.84 in1010.5 mb 0.00 in0.0 mm 0.00 in0.0 mm 0.00 in0.0 mm
06:31 AM 60.7°F15.9°C 54.5°F12.5°C 80% 2.0 mph NNE3.2 kmh NNE 2.0 mph3.2 kmh 29.83 in1010.2 mb 0.00 in0.0 mm 0.00 in0.0 mm 0.00 in0.0 mm
06:24 AM 60.7°F15.9°C 54.2°F12.3°C 79% 0.9 mph NNE1.4 kmh NNE 2.2 mph3.5 kmh 29.83 in1010.2 mb 0.00 in0.0 mm 0.00 in0.0 mm 0.00 in0.0 mm
06:19 AM 60.8°F16.0°C 54.4°F12.4°C 79% 0.5 mph NNE0.8 kmh NNE 1.1 mph1.8 kmh 29.83 in1010.2 mb 0.00 in0.0 mm 0.00 in0.0 mm 0.00 in0.0 mm
06:13 AM 60.8°F16.0°C 54.4°F12.4°C 79% 1.1 mph NNE1.8 kmh NNE 1.1 mph1.8 kmh 29.83 in1010.2 mb 0.00 in0.0 mm 0.00 in0.0 mm 0.00 in0.0 mm
06:07 AM 61.0°F16.1°C 54.6°F12.6°C 79% 0.2 mph NNE0.3 kmh NNE 0.7 mph1.1 kmh 29.83 in1010.2 mb 0.00 in0.0 mm 0.00 in0.0 mm 0.00 in0.0 mm
06:02 AM 61.0°F16.1°C 54.6°F12.6°C 79% 0.7 mph NNE1.1 kmh NNE 0.9 mph1.4 kmh 29.83 in1010.2 mb 0.00 in0.0 mm 0.00 in0.0 mm 0.00 in0.0 mm
05:57 AM 61.0°F16.1°C 54.6°F12.6°C 79% 0.9 mph NNE1.4 kmh NNE 1.1 mph1.8 kmh 29.83 in1010.2 mb 0.00 in0.0 mm 0.00 in0.0 mm 0.00 in0.0 mm
05:52 AM 61.2°F16.2°C 54.7°F12.6°C 79% 0.9 mph NNE1.4 kmh NNE 1.1 mph1.8 kmh 29.83 in1010.2 mb 0.00 in0.0 mm 0.00 in0.0 mm 0.00 in0.0 mm
05:47 AM 61.4°F16.3°C 54.8°F12.7°C 79% 0.2 mph NNE0.3 kmh NNE 1.6 mph2.6 kmh 29.83 in1010.2 mb 0.00 in0.0 mm 0.00 in0.0 mm 0.00 in0.0 mm
05:41 AM 61.6°F16.4°C 55.0°F12.8°C 79% 0.7 mph NNE1.1 kmh NNE 1.6 mph2.6 kmh 29.83 in1010.2 mb 0.00 in0.0 mm 0.00 in0.0 mm 0.00 in0.0 mm
05:34 AM 61.6°F16.4°C 55.0°F12.8°C 79% 0.2 mph NNE0.3 kmh NNE 1.1 mph1.8 kmh 29.83 in1010.2 mb 0.00 in0.0 mm 0.00 in0.0 mm 0.00 in0.0 mm
05:29 AM 61.6°F16.4°C 55.0°F12.8°C 79% 0.4 mph NNE0.6 kmh NNE 1.1 mph1.8 kmh 29.83 in1010.2 mb 0.00 in0.0 mm 0.00 in0.0 mm 0.00 in0.0 mm
05:23 AM 61.6°F16.4°C 55.0°F12.8°C 79% 0.5 mph NNE0.8 kmh NNE 0.7 mph1.1 kmh 29.83 in1010.2 mb 0.00 in0.0 mm 0.00 in0.0 mm 0.00 in0.0 mm
05:16 AM 61.6°F16.4°C 55.0°F12.8°C 79% 0.2 mph NNE0.3 kmh NNE 1.1 mph1.8 kmh 29.83 in1010.2 mb 0.00 in0.0 mm 0.00 in0.0 mm 0.00 in0.0 mm
05:11 AM 61.7°F16.5°C 55.2°F12.9°C 79% 1.1 mph NNE1.8 kmh NNE 1.1 mph1.8 kmh 29.83 in1010.2 mb 0.00 in0.0 mm 0.00 in0.0 mm 0.00 in0.0 mm
05:06 AM 61.7°F16.5°C 54.8°F12.7°C 78% 0.4 mph NNE0.6 kmh NNE 1.3 mph2.1 kmh 29.83 in1010.2 mb 0.00 in0.0 mm 0.00 in0.0 mm 0.00 in0.0 mm
05:01 AM 61.7°F16.5°C 55.2°F12.9°C 79% 1.2 mph NNE1.9 kmh NNE 1.3 mph2.1 kmh 29.83 in1010.2 mb 0.00 in0.0 mm 0.00 in0.0 mm 0.00 in0.0 mm
04:56 AM 61.9°F16.6°C 55.0°F12.8°C 78% 0.4 mph NNE0.6 kmh NNE 0.4 mph0.6 kmh 29.83 in1010.2 mb 0.00 in0.0 mm 0.00 in0.0 mm 0.00 in0.0 mm
04:50 AM 61.9°F16.6°C 55.0°F12.8°C 78% 0.1 mph NNE0.2 kmh NNE 1.6 mph2.6 kmh 29.82 in1009.8 mb 0.00 in0.0 mm 0.00 in0.0 mm 0.00 in0.0 mm
04:45 AM 62.1°F16.7°C 55.2°F12.9°C 78% 0.3 mph NNE0.5 kmh NNE 1.6 mph2.6 kmh 29.83 in1010.2 mb 0.00 in0.0 mm 0.00 in0.0 mm 0.00 in0.0 mm
04:40 AM 62.1°F16.7°C 55.2°F12.9°C 78% 0.5 mph NNE0.8 kmh NNE 1.6 mph2.6 kmh 29.82 in1009.8 mb 0.00 in0.0 mm 0.00 in0.0 mm 0.00 in0.0 mm
04:35 AM 62.1°F16.7°C 55.2°F12.9°C 78% 0.6 mph NNE1.0 kmh NNE 1.1 mph1.8 kmh 29.82 in1009.8 mb 0.00 in0.0 mm 0.00 in0.0 mm 0.00 in0.0 mm
04:28 AM 62.3°F16.8°C 55.3°F12.9°C 78% 0.3 mph NNE0.5 kmh NNE 0.4 mph0.6 kmh 29.83 in1010.2 mb 0.00 in0.0 mm 0.00 in0.0 mm 0.00 in0.0 mm
04:24 AM 62.3°F16.8°C 55.3°F12.9°C 78% 0.3 mph NNE0.5 kmh NNE 0.4 mph0.6 kmh 29.82 in1009.8 mb 0.00 in0.0 mm 0.00 in0.0 mm 0.00 in0.0 mm
04:17 AM 62.5°F16.9°C 55.4°F13.0°C 78% 0.4 mph NNE0.6 kmh NNE 1.1 mph1.8 kmh 29.82 in1009.8 mb 0.00 in0.0 mm 0.00 in0.0 mm 0.00 in0.0 mm
04:11 AM 62.5°F16.9°C 55.1°F12.8°C 77% 0.4 mph NNE0.6 kmh NNE 1.1 mph1.8 kmh 29.82 in1009.8 mb 0.00 in0.0 mm 0.00 in0.0 mm 0.00 in0.0 mm
04:05 AM 62.5°F16.9°C 55.1°F12.8°C 77% 1.0 mph NNE1.6 kmh NNE 1.1 mph1.8 kmh 29.82 in1009.8 mb 0.00 in0.0 mm 0.00 in0.0 mm 0.00 in0.0 mm
04:00 AM 62.6°F17.0°C 55.3°F12.9°C 77% 0.5 mph NNE0.8 kmh NNE 1.1 mph1.8 kmh 29.82 in1009.8 mb 0.00 in0.0 mm 0.00 in0.0 mm 0.00 in0.0 mm
03:55 AM 62.6°F17.0°C 55.3°F12.9°C 77% 0.7 mph NNE1.1 kmh NNE 1.1 mph1.8 kmh 29.83 in1010.2 mb 0.00 in0.0 mm 0.00 in0.0 mm 0.00 in0.0 mm
03:49 AM 62.6°F17.0°C 55.3°F12.9°C 77% 0.2 mph NNE0.3 kmh NNE 0.7 mph1.1 kmh 29.83 in1010.2 mb 0.00 in0.0 mm 0.00 in0.0 mm 0.00 in0.0 mm
03:43 AM 62.8°F17.1°C 55.4°F13.0°C 77% 0.2 mph NNE0.3 kmh NNE 0.7 mph1.1 kmh 29.82 in1009.8 mb 0.00 in0.0 mm 0.00 in0.0 mm 0.00 in0.0 mm
03:37 AM 63.0°F17.2°C 55.6°F13.1°C 77% 0.4 mph NNE0.6 kmh NNE 0.9 mph1.4 kmh 29.83 in1010.2 mb 0.00 in0.0 mm 0.00 in0.0 mm 0.00 in0.0 mm
03:31 AM 63.0°F17.2°C 55.6°F13.1°C 77% 0.4 mph NNE0.6 kmh NNE 0.9 mph1.4 kmh 29.83 in1010.2 mb 0.00 in0.0 mm 0.00 in0.0 mm 0.00 in0.0 mm
03:26 AM 63.0°F17.2°C 55.3°F12.9°C 76% 0.2 mph NNE0.3 kmh NNE 0.9 mph1.4 kmh 29.83 in1010.2 mb 0.00 in0.0 mm 0.00 in0.0 mm 0.00 in0.0 mm
03:20 AM 63.2°F17.3°C 55.4°F13.0°C 76% 0.3 mph NNE0.5 kmh NNE 0.7 mph1.1 kmh 29.82 in1009.8 mb 0.00 in0.0 mm 0.00 in0.0 mm 0.00 in0.0 mm
03:14 AM 63.4°F17.4°C 55.6°F13.1°C 76% 0.2 mph NNE0.3 kmh NNE 0.4 mph0.6 kmh 29.82 in1009.8 mb 0.00 in0.0 mm 0.00 in0.0 mm 0.00 in0.0 mm
03:09 AM 63.4°F17.4°C 55.6°F13.1°C 76% Calm Calm 0.4 mph0.6 kmh 29.81 in1009.5 mb 0.00 in0.0 mm 0.00 in0.0 mm 0.00 in0.0 mm
03:03 AM 63.5°F17.5°C 56.2°F13.4°C 77% 0.1 mph NNE0.2 kmh NNE 0.4 mph0.6 kmh 29.81 in1009.5 mb 0.00 in0.0 mm 0.00 in0.0 mm 0.00 in0.0 mm
02:58 AM 63.7°F17.6°C 56.3°F13.5°C 77% Calm Calm 0.2 mph0.3 kmh 29.81 in1009.5 mb 0.00 in0.0 mm 0.00 in0.0 mm 0.00 in0.0 mm
02:52 AM 63.7°F17.6°C 56.3°F13.5°C 77% Calm Calm 0.4 mph0.6 kmh 29.81 in1009.5 mb 0.00 in0.0 mm 0.00 in0.0 mm 0.00 in0.0 mm
02:47 AM 63.7°F17.6°C 56.3°F13.5°C 77% Calm Calm 1.1 mph1.8 kmh 29.82 in1009.8 mb 0.00 in0.0 mm 0.00 in0.0 mm 0.00 in0.0 mm
02:40 AM 64.1°F17.8°C 56.7°F13.7°C 77% 0.7 mph NNE1.1 kmh NNE 0.7 mph1.1 kmh 29.82 in1009.8 mb 0.00 in0.0 mm 0.00 in0.0 mm 0.00 in0.0 mm
02:35 AM 64.1°F17.8°C 56.7°F13.7°C 77% Calm Calm -- 29.82 in1009.8 mb 0.00 in0.0 mm 0.00 in0.0 mm 0.00 in0.0 mm
02:29 AM 64.1°F17.8°C 56.7°F13.7°C 77% Calm Calm 0.9 mph1.4 kmh 29.82 in1009.8 mb 0.00 in0.0 mm 0.00 in0.0 mm 0.00 in0.0 mm
02:24 AM 64.1°F17.8°C 56.7°F13.7°C 77% Calm Calm 0.9 mph1.4 kmh 29.82 in1009.8 mb 0.00 in0.0 mm 0.00 in0.0 mm 0.00 in0.0 mm
02:17 AM 64.1°F17.8°C 56.7°F13.7°C 77% Calm Calm 0.2 mph0.3 kmh 29.82 in1009.8 mb 0.00 in0.0 mm 0.00 in0.0 mm 0.00 in0.0 mm
02:11 AM 64.1°F17.8°C 56.7°F13.7°C 77% 0.1 mph NNE0.2 kmh NNE 0.2 mph0.3 kmh 29.82 in1009.8 mb 0.00 in0.0 mm 0.00 in0.0 mm 0.00 in0.0 mm
02:06 AM 64.1°F17.8°C 56.7°F13.7°C 77% Calm Calm 1.1 mph1.8 kmh 29.82 in1009.8 mb 0.00 in0.0 mm 0.00 in0.0 mm 0.00 in0.0 mm
02:01 AM 64.1°F17.8°C 56.7°F13.7°C 77% Calm Calm 1.1 mph1.8 kmh 29.82 in1009.8 mb 0.00 in0.0 mm 0.00 in0.0 mm 0.00 in0.0 mm
01:56 AM 64.3°F17.9°C 56.5°F13.6°C 76% Calm Calm 0.4 mph0.6 kmh 29.81 in1009.5 mb 0.00 in0.0 mm 0.00 in0.0 mm 0.00 in0.0 mm
01:50 AM 64.3°F17.9°C 56.5°F13.6°C 76% Calm Calm 0.9 mph1.4 kmh 29.81 in1009.5 mb 0.00 in0.0 mm 0.00 in0.0 mm 0.00 in0.0 mm
01:45 AM 64.3°F17.9°C 56.5°F13.6°C 76% 0.7 mph NNE1.1 kmh NNE 2.2 mph3.5 kmh 29.82 in1009.8 mb 0.00 in0.0 mm 0.00 in0.0 mm 0.00 in0.0 mm
01:40 AM 64.4°F18.0°C 56.7°F13.7°C 76% 0.5 mph NNE0.8 kmh NNE 2.2 mph3.5 kmh 29.81 in1009.5 mb 0.00 in0.0 mm 0.00 in0.0 mm 0.00 in0.0 mm
01:35 AM 64.4°F18.0°C 56.7°F13.7°C 76% Calm Calm 1.1 mph1.8 kmh 29.81 in1009.5 mb 0.00 in0.0 mm 0.00 in0.0 mm 0.00 in0.0 mm
01:30 AM 64.4°F18.0°C 56.7°F13.7°C 76% 0.4 mph NNE0.6 kmh NNE 1.3 mph2.1 kmh 29.82 in1009.8 mb 0.00 in0.0 mm 0.00 in0.0 mm 0.00 in0.0 mm
01:21 AM 64.4°F18.0°C 56.7°F13.7°C 76% 1.3 mph NNE2.1 kmh NNE 1.6 mph2.6 kmh 29.81 in1009.5 mb 0.00 in0.0 mm 0.00 in0.0 mm 0.00 in0.0 mm
01:16 AM 64.4°F18.0°C 56.7°F13.7°C 76% 1.3 mph NNE2.1 kmh NNE 1.6 mph2.6 kmh 29.81 in1009.5 mb 0.00 in0.0 mm 0.00 in0.0 mm 0.00 in0.0 mm
01:11 AM 64.4°F18.0°C 56.7°F13.7°C 76% 1.5 mph NNE2.4 kmh NNE 1.6 mph2.6 kmh 29.81 in1009.5 mb 0.00 in0.0 mm 0.00 in0.0 mm 0.00 in0.0 mm
01:06 AM 64.4°F18.0°C 56.7°F13.7°C 76% Calm Calm 1.1 mph1.8 kmh 29.81 in1009.5 mb 0.00 in0.0 mm 0.00 in0.0 mm 0.00 in0.0 mm
01:00 AM 64.4°F18.0°C 56.7°F13.7°C 76% 0.2 mph NNE0.3 kmh NNE 1.1 mph1.8 kmh 29.81 in1009.5 mb 0.00 in0.0 mm 0.00 in0.0 mm 0.00 in0.0 mm
12:55 AM 64.4°F18.0°C 56.7°F13.7°C 76% Calm Calm 2.5 mph4.0 kmh 29.80 in1009.1 mb 0.00 in0.0 mm 0.00 in0.0 mm 0.00 in0.0 mm
12:50 AM 64.4°F18.0°C 56.7°F13.7°C 76% 0.7 mph NNE1.1 kmh NNE 2.5 mph4.0 kmh 29.80 in1009.1 mb 0.00 in0.0 mm 0.00 in0.0 mm 0.00 in0.0 mm
12:45 AM 64.4°F18.0°C 56.7°F13.7°C 76% 2.4 mph NNE3.9 kmh NNE 3.4 mph5.5 kmh 29.80 in1009.1 mb 0.00 in0.0 mm 0.00 in0.0 mm 0.00 in0.0 mm
12:40 AM 64.4°F18.0°C 56.7°F13.7°C 76% 1.8 mph NNE2.9 kmh NNE 3.4 mph5.5 kmh 29.80 in1009.1 mb 0.00 in0.0 mm 0.00 in0.0 mm 0.00 in0.0 mm
12:34 AM 64.6°F18.1°C 56.9°F13.8°C 76% 1.2 mph NNE1.9 kmh NNE 3.4 mph5.5 kmh 29.80 in1009.1 mb 0.00 in0.0 mm 0.00 in0.0 mm 0.00 in0.0 mm
12:29 AM 64.8°F18.2°C 56.7°F13.7°C 75% 1.9 mph NNE3.1 kmh NNE 4.0 mph6.4 kmh 29.80 in1009.1 mb 0.00 in0.0 mm 0.00 in0.0 mm 0.00 in0.0 mm
12:24 AM 64.8°F18.2°C 56.7°F13.7°C 75% 2.3 mph NNE3.7 kmh NNE 4.0 mph6.4 kmh 29.80 in1009.1 mb 0.00 in0.0 mm 0.00 in0.0 mm 0.00 in0.0 mm
12:19 AM 64.8°F18.2°C 56.7°F13.7°C 75% 1.7 mph NNE2.7 kmh NNE 3.8 mph6.1 kmh 29.80 in1009.1 mb 0.00 in0.0 mm 0.00 in0.0 mm 0.00 in0.0 mm
12:14 AM 65.0°F18.3°C 56.9°F13.8°C 75% 0.7 mph NNE1.1 kmh NNE 1.8 mph2.9 kmh 29.80 in1009.1 mb 0.00 in0.0 mm 0.00 in0.0 mm 0.00 in0.0 mm
12:09 AM 65.0°F18.3°C 56.9°F13.8°C 75% 0.3 mph NNE0.5 kmh NNE 1.6 mph2.6 kmh 29.80 in1009.1 mb 0.00 in0.0 mm 0.00 in0.0 mm 0.00 in0.0 mm
12:03 AM 65.0°F18.3°C 56.9°F13.8°C 75% 0.9 mph NNE1.4 kmh NNE 1.6 mph2.6 kmh 29.80 in1009.1 mb 0.00 in0.0 mm 0.00 in0.0 mm 0.00 in0.0 mm